Time;durP1;ratioP1;P1;durP2;ratioP2;P2;SDS_P1;SDS_P2;PMS_P1;PMS_P2;Temp;Humidity;BMP_temperature;BMP_pressure;BME280_temperature;BME280_humidity;BME280_pressure;Samples;Min_cycle;Max_cycle;Signal;HPM_P1;HPM_P2
2021/12/18 00:01:39;;;;;;;22.60;19.87;;;;;;;3.98;84.30;98459.47;5039272;28;20218;-69
2021/12/18 00:04:05;;;;;;;20.33;18.13;;;;;;;4.05;84.16;98461.84;5024965;28;20208;-70
2021/12/18 00:06:32;;;;;;;23.63;18.73;;;;;;;4.05;83.62;98454.84;5030970;28;20705;-69
2021/12/18 00:08:59;;;;;;;21.93;19.17;;;;;;;3.91;84.12;98454.50;5035000;28;20278;-70
2021/12/18 00:11:28;;;;;;;20.23;17.97;;;;;;;3.89;84.74;98451.97;5056490;28;20208;-71
2021/12/18 00:13:54;;;;;;;21.67;19.07;;;;;;;3.99;84.57;98445.47;5056228;28;20192;-70
2021/12/18 00:16:21;;;;;;;21.77;18.23;;;;;;;3.91;84.14;98452.75;5057338;28;20207;-72
2021/12/18 00:18:50;;;;;;;22.60;18.80;;;;;;;3.83;84.60;98452.19;5058168;28;20215;-73
2021/12/18 00:21:18;;;;;;;20.83;18.47;;;;;;;3.88;84.36;98452.88;5045483;28;20204;-73
2021/12/18 00:23:45;;;;;;;21.20;18.93;;;;;;;3.85;84.19;98453.00;5034353;28;20227;-69
2021/12/18 00:26:11;;;;;;;21.93;19.07;;;;;;;3.85;84.08;98447.75;5038559;28;20249;-70
2021/12/18 00:28:39;;;;;;;21.30;18.93;;;;;;;3.81;83.95;98447.94;5037227;28;20551;-69
2021/12/18 00:31:06;;;;;;;21.73;19.37;;;;;;;3.78;84.34;98441.06;5035935;28;20212;-73
2021/12/18 00:33:32;;;;;;;21.77;19.23;;;;;;;3.71;84.47;98439.56;5036749;28;20214;-73
2021/12/18 00:35:59;;;;;;;21.73;18.63;;;;;;;3.71;84.45;98434.34;5028634;28;20580;-72
2021/12/18 00:38:29;;;;;;;22.40;19.07;;;;;;;3.68;84.75;98437.06;5036614;28;20218;-68
2021/12/18 00:41:11;;;;;;;21.23;18.60;;;;;;;3.78;84.79;98430.59;5036193;28;20294;-69
2021/12/18 00:44:01;;;;;;;21.43;18.67;;;;;;;3.79;84.54;98429.66;5028104;28;20216;-68
2021/12/18 00:46:27;;;;;;;23.13;20.27;;;;;;;3.74;84.66;98426.38;5036237;28;20295;-68
2021/12/18 00:48:54;;;;;;;21.20;18.17;;;;;;;3.75;84.10;98417.63;5044550;28;20529;-68
2021/12/18 00:51:21;;;;;;;21.93;19.07;;;;;;;3.69;84.56;98428.28;5030918;28;20215;-68
2021/12/18 00:53:47;;;;;;;21.80;18.77;;;;;;;3.72;84.91;98422.13;5017430;28;20216;-68
2021/12/18 00:56:14;;;;;;;23.97;19.50;;;;;;;3.80;84.89;98427.91;5034815;28;20211;-70
2021/12/18 00:58:42;;;;;;;23.20;19.80;;;;;;;3.84;85.15;98429.47;5036957;28;20204;-70
2021/12/18 01:01:10;;;;;;;22.17;19.73;;;;;;;3.83;84.85;98430.38;5030434;28;20263;-70
2021/12/18 01:03:37;;;;;;;22.13;19.03;;;;;;;3.84;84.40;98430.34;5030188;28;20529;-72
2021/12/18 01:06:04;;;;;;;22.60;18.90;;;;;;;3.85;84.47;98429.44;5052209;28;20255;-71
2021/12/18 01:08:30;;;;;;;20.33;18.17;;;;;;;3.74;83.96;98430.75;5058853;28;20191;-70
2021/12/18 01:11:13;;;;;;;21.47;18.90;;;;;;;3.74;83.90;98423.75;5057448;28;20203;-72
2021/12/18 01:13:52;;;;;;;22.60;20.03;;;;;;;3.77;83.92;98420.16;5044952;28;20195;-70
2021/12/18 01:16:23;;;;;;;23.43;19.37;;;;;;;3.68;84.61;98429.22;5031263;28;20200;-72
2021/12/18 01:24:18;;;;;;;23.70;19.30;;;;;;;3.59;84.42;98413.84;5032938;28;20922;-70
2021/12/18 01:26:44;;;;;;;22.80;18.70;;;;;;;3.59;84.76;98424.31;5033253;28;20199;-73
2021/12/18 01:29:11;;;;;;;22.87;19.33;;;;;;;3.56;84.91;98421.81;5036347;28;20226;-70
2021/12/18 01:31:39;;;;;;;21.07;18.63;;;;;;;3.55;84.96;98419.25;5036085;28;20211;-73
2021/12/18 01:34:05;;;;;;;22.57;19.47;;;;;;;3.53;85.51;98413.22;5035417;28;20218;-72
2021/12/18 01:36:32;;;;;;;24.23;20.30;;;;;;;3.50;85.19;98419.44;5029805;28;20212;-72
2021/12/18 01:39:00;;;;;;;24.90;20.10;;;;;;;3.53;85.55;98424.56;5016190;28;20228;-71
2021/12/18 01:41:34;;;;;;;23.37;19.80;;;;;;;3.50;85.59;98419.44;5016067;28;20618;-70
2021/12/18 01:46:59;;;;;;;24.80;20.83;;;;;;;3.57;85.34;98409.59;5026925;28;20201;-72
2021/12/18 01:52:18;;;;;;;25.23;20.27;;;;;;;3.57;85.87;98394.75;5035799;28;20210;-69
2021/12/18 01:54:46;;;;;;;26.90;20.77;;;;;;;3.61;85.59;98400.72;5030522;28;20199;-72
2021/12/18 01:57:13;;;;;;;23.73;19.80;;;;;;;3.52;85.74;98394.06;5028597;28;20210;-69
2021/12/18 01:59:42;;;;;;;23.93;20.50;;;;;;;3.53;85.98;98398.41;5036151;28;20210;-69
2021/12/18 02:02:10;;;;;;;26.23;19.43;;;;;;;3.61;86.25;98388.50;5035380;28;20229;-70
2021/12/18 02:04:37;;;;;;;26.70;21.00;;;;;;;3.56;85.51;98393.06;5035073;28;20199;-71
2021/12/18 02:07:03;;;;;;;25.10;19.57;;;;;;;3.59;85.75;98386.84;5035202;28;20204;-73
2021/12/18 02:09:45;;;;;;;23.17;19.50;;;;;;;3.52;86.06;98391.44;5034154;28;20203;-72
2021/12/18 02:12:12;;;;;;;25.47;20.20;;;;;;;3.51;86.05;98389.75;5035407;28;20213;-68
2021/12/18 02:20:21;;;;;;;24.87;20.37;;;;;;;3.50;85.87;98388.06;5027900;28;20222;-73
2021/12/18 02:22:48;;;;;;;25.80;19.57;;;;;;;3.51;85.69;98379.28;5035026;28;20242;-70
2021/12/18 02:25:14;;;;;;;24.97;19.70;;;;;;;3.54;86.15;98373.09;5022464;28;20215;-67
2021/12/18 02:27:41;;;;;;;25.13;20.13;;;;;;;3.59;86.09;98371.16;5025908;28;20238;-68
2021/12/18 02:30:10;;;;;;;26.03;20.30;;;;;;;3.54;85.88;98368.72;5015833;28;20231;-72
2021/12/18 02:32:37;;;;;;;26.77;20.13;;;;;;;3.57;85.98;98368.59;5015758;28;20207;-72
2021/12/18 02:35:05;;;;;;;26.57;20.73;;;;;;;3.51;86.02;98374.03;5018952;28;20214;-71
2021/12/18 02:37:39;;;;;;;25.73;19.33;;;;;;;3.51;86.06;98368.81;5035258;28;20654;-71
2021/12/18 02:42:52;;;;;;;26.07;21.47;;;;;;;3.58;85.97;98370.28;5021525;28;20230;-71
2021/12/18 02:45:19;;;;;;;27.80;20.87;;;;;;;3.59;86.11;98371.16;5028560;28;20263;-70
2021/12/18 02:47:47;;;;;;;26.40;20.93;;;;;;;3.54;85.74;98379.19;5039638;28;20211;-69
2021/12/18 02:50:14;;;;;;;27.87;21.73;;;;;;;3.50;85.65;98372.38;5032665;28;20627;-71
2021/12/18 02:52:42;;;;;;;27.83;21.17;;;;;;;3.52;86.17;98365.28;5031742;28;20210;-68
2021/12/18 02:55:09;;;;;;;26.80;20.60;;;;;;;3.54;85.20;98367.88;5033048;28;20517;-71
2021/12/18 02:57:35;;;;;;;25.67;19.30;;;;;;;3.45;85.72;98375.13;5032704;28;20203;-73
2021/12/18 03:00:02;;;;;;;25.60;20.50;;;;;;;3.49;85.79;98376.75;5029203;28;20221;-73
2021/12/18 03:02:33;;;;;;;26.33;20.57;;;;;;;3.47;85.82;98378.53;5039035;28;20210;-72
2021/12/18 03:05:05;;;;;;;25.17;20.40;;;;;;;3.49;85.71;98368.03;5036074;28;20781;-71
2021/12/18 03:07:32;;;;;;;25.93;19.83;;;;;;;3.46;85.29;98365.53;5037832;28;20204;-69
2021/12/18 03:23:57;;;;;;;26.43;20.70;;;;;;;3.28;86.08;98360.97;5032113;28;20330;-71
2021/12/18 03:26:25;;;;;;;28.80;21.13;;;;;;;3.25;86.19;98361.97;5034527;28;20204;-73
2021/12/18 03:28:52;;;;;;;26.27;20.53;;;;;;;3.30;86.29;98353.91;5021084;28;20207;-71
2021/12/18 03:31:19;;;;;;;26.57;20.47;;;;;;;3.30;86.25;98360.00;5019278;28;20558;-70
2021/12/18 03:33:46;;;;;;;23.80;19.50;;;;;;;3.40;86.16;98366.59;5027679;28;20207;-71
2021/12/18 03:36:13;;;;;;;26.27;19.90;;;;;;;3.43;86.07;98358.66;5040088;28;20207;-72
2021/12/18 03:38:39;;;;;;;25.33;20.50;;;;;;;3.42;86.75;98363.94;5029755;28;20232;-71
2021/12/18 03:41:05;;;;;;;27.50;21.23;;;;;;;3.39;85.65;98369.28;5040059;28;20222;-72
2021/12/18 03:43:33;;;;;;;25.20;20.37;;;;;;;3.38;85.87;98372.81;5044247;28;20234;-72
2021/12/18 03:46:00;;;;;;;25.00;20.60;;;;;;;3.37;85.55;98360.63;5038744;28;20219;-68
2021/12/18 03:48:26;;;;;;;26.37;21.17;;;;;;;3.37;85.94;98366.72;5046446;28;20323;-74
2021/12/18 03:50:53;;;;;;;26.50;20.13;;;;;;;3.32;86.16;98363.44;5038359;28;20211;-71
2021/12/18 03:53:19;;;;;;;24.87;19.83;;;;;;;3.34;86.67;98361.59;5040998;28;20669;-69
2021/12/18 03:55:46;;;;;;;25.57;19.87;;;;;;;3.28;86.40;98361.84;5046814;28;20195;-70
2021/12/18 03:58:12;;;;;;;27.67;20.80;;;;;;;3.32;86.35;98355.59;5046618;28;20203;-70
2021/12/18 04:00:40;;;;;;;26.97;20.13;;;;;;;3.40;86.45;98355.31;5036572;28;20540;-73
2021/12/18 04:03:07;;;;;;;26.07;20.53;;;;;;;3.33;86.12;98353.84;5051975;28;20227;-73
2021/12/18 04:05:33;;;;;;;26.23;20.87;;;;;;;3.36;86.19;98351.09;5038242;28;20239;-69
2021/12/18 04:08:08;;;;;;;26.50;20.80;;;;;;;3.24;86.68;98352.41;5038357;28;20216;-71
2021/12/18 04:10:37;;;;;;;28.43;22.00;;;;;;;3.34;86.37;98353.75;5037903;28;20511;-72
2021/12/18 04:13:04;;;;;;;26.97;21.50;;;;;;;3.28;86.60;98355.75;5037870;28;20277;-71
2021/12/18 04:15:31;;;;;;;27.83;20.13;;;;;;;3.23;86.60;98357.66;5027516;28;20249;-71
2021/12/18 04:17:58;;;;;;;26.23;20.03;;;;;;;3.17;86.82;98352.69;5025904;28;20212;-72
2021/12/18 04:20:25;;;;;;;26.77;21.10;;;;;;;3.16;86.50;98353.56;5022631;28;20533;-72
2021/12/18 04:22:53;;;;;;;26.57;20.87;;;;;;;3.09;86.52;98349.47;5037172;28;20219;-71
2021/12/18 04:25:20;;;;;;;27.10;20.27;;;;;;;3.17;85.97;98350.06;5029160;28;20216;-68
2021/12/18 04:27:46;;;;;;;25.47;20.10;;;;;;;3.12;86.49;98352.84;5036831;28;20515;-69
2021/12/18 04:30:13;;;;;;;25.60;20.53;;;;;;;3.06;86.70;98362.66;5018885;28;20212;-71
2021/12/18 04:32:40;;;;;;;24.50;19.83;;;;;;;3.10;87.25;98359.03;5017563;28;20215;-70
2021/12/18 04:35:08;;;;;;;27.23;20.63;;;;;;;3.10;87.01;98356.44;5023033;28;20214;-71
2021/12/18 04:37:34;;;;;;;27.40;20.03;;;;;;;3.08;86.59;98355.63;5037295;28;20221;-70
2021/12/18 04:40:01;;;;;;;25.07;20.50;;;;;;;3.00;86.75;98351.53;5036940;28;20207;-73
2021/12/18 04:42:28;;;;;;;24.87;18.93;;;;;;;3.00;86.95;98346.31;5036312;28;20215;-73
2021/12/18 04:44:54;;;;;;;25.50;20.80;;;;;;;2.93;87.11;98351.81;5033247;28;20258;-73
2021/12/18 04:47:21;;;;;;;26.70;20.23;;;;;;;2.89;87.42;98358.91;5037629;28;20211;-73
2021/12/18 04:49:47;;;;;;;27.03;20.13;;;;;;;2.96;87.22;98351.69;5017482;28;20216;-70
2021/12/18 04:52:15;;;;;;;26.03;19.60;;;;;;;2.91;87.67;98354.47;5016869;28;20222;-69
2021/12/18 04:54:41;;;;;;;26.17;20.37;;;;;;;2.96;87.26;98357.78;5023449;28;20206;-69
2021/12/18 04:57:08;;;;;;;28.40;20.43;;;;;;;2.92;87.34;98358.78;5036237;28;20214;-69
2021/12/18 04:59:42;;;;;;;25.20;19.77;;;;;;;2.93;87.64;98365.72;5023579;28;20297;-69
2021/12/18 05:02:08;;;;;;;24.73;19.67;;;;;;;2.88;87.16;98362.41;5036404;28;20698;-70
2021/12/18 05:04:35;;;;;;;23.60;18.47;;;;;;;2.94;87.27;98359.56;5031822;28;20234;-69
2021/12/18 05:07:01;;;;;;;27.93;19.57;;;;;;;2.95;87.43;98358.69;5030950;28;20210;-70
2021/12/18 05:09:29;;;;;;;27.70;19.43;;;;;;;2.96;87.00;98344.72;5036432;28;20229;-69
2021/12/18 05:11:55;;;;;;;27.37;20.37;;;;;;;2.90;86.97;98354.53;5036153;28;20823;-68
2021/12/18 05:14:22;;;;;;;25.17;18.40;;;;;;;2.91;87.07;98354.47;5032100;28;20202;-70
2021/12/18 05:16:49;;;;;;;28.07;19.47;;;;;;;2.87;86.58;98349.44;5036062;28;20296;-68
2021/12/18 05:19:15;;;;;;;27.17;19.47;;;;;;;2.97;87.50;98341.19;5023059;28;20222;-71
2021/12/18 05:21:42;;;;;;;25.80;18.70;;;;;;;3.05;86.34;98347.91;5036133;28;20218;-69
2021/12/18 05:24:08;;;;;;;27.57;19.83;;;;;;;3.01;86.72;98347.19;5023870;28;20230;-69
2021/12/18 05:26:36;;;;;;;39.37;20.77;;;;;;;2.98;86.24;98342.03;5045305;28;20199;-69
2021/12/18 05:29:03;;;;;;;26.33;19.07;;;;;;;2.95;86.70;98355.22;5058339;28;20196;-71
2021/12/18 05:31:29;;;;;;;26.93;19.13;;;;;;;2.94;86.21;98351.75;5058504;28;20549;-71
2021/12/18 05:33:59;;;;;;;26.83;20.37;;;;;;;2.94;86.37;98346.50;5046582;28;20594;-71
2021/12/18 05:36:33;;;;;;;28.67;19.63;;;;;;;2.98;86.03;98344.63;5033381;28;20222;-71
2021/12/18 05:39:02;;;;;;;26.20;19.20;;;;;;;2.92;86.18;98343.13;5036105;28;20211;-70
2021/12/18 05:41:28;;;;;;;26.17;19.43;;;;;;;2.96;85.94;98342.09;5036041;28;20216;-70
2021/12/18 05:43:56;;;;;;;28.83;19.63;;;;;;;2.88;85.99;98348.50;5032760;28;20231;-70
2021/12/18 05:46:23;;;;;;;26.90;18.97;;;;;;;2.94;85.71;98351.75;5035771;28;20202;-71
2021/12/18 05:48:49;;;;;;;25.33;19.60;;;;;;;2.92;85.92;98355.31;5025486;28;20202;-69
2021/12/18 05:51:16;;;;;;;24.33;18.73;;;;;;;2.86;86.05;98348.56;5028918;28;20202;-71
2021/12/18 05:53:43;;;;;;;30.30;20.53;;;;;;;2.86;86.01;98351.19;5033981;28;20209;-70
2021/12/18 05:56:10;;;;;;;28.07;20.83;;;;;;;2.83;86.50;98343.47;5035491;28;20602;-71
2021/12/18 05:58:36;;;;;;;27.40;20.03;;;;;;;2.82;86.42;98357.41;5035774;28;20210;-69
2021/12/18 06:01:04;;;;;;;28.23;20.77;;;;;;;2.70;86.82;98363.06;5035761;28;20214;-71
2021/12/18 06:03:30;;;;;;;29.50;20.00;;;;;;;2.75;87.12;98363.75;5036344;28;20247;-69
2021/12/18 06:05:57;;;;;;;29.63;19.83;;;;;;;2.76;86.91;98362.00;5026664;28;20238;-69
2021/12/18 06:08:24;;;;;;;29.10;19.73;;;;;;;2.65;86.81;98370.22;5035276;28;20641;-68
2021/12/18 06:10:51;;;;;;;26.77;19.63;;;;;;;2.65;87.04;98371.97;5035290;28;20310;-69
2021/12/18 06:13:17;;;;;;;28.63;19.20;;;;;;;2.65;87.21;98370.22;5029287;28;20639;-70
2021/12/18 06:15:44;;;;;;;27.43;19.90;;;;;;;2.62;87.36;98365.09;5035671;28;20234;-68
2021/12/18 06:18:12;;;;;;;30.37;21.03;;;;;;;2.50;87.15;98370.72;5037727;28;20610;-69
2021/12/18 06:20:38;;;;;;;27.87;19.60;;;;;;;2.53;87.37;98370.63;5038943;28;20214;-71
2021/12/18 06:23:04;;;;;;;28.57;19.50;;;;;;;2.50;87.36;98370.72;5027702;28;20231;-71
2021/12/18 06:25:31;;;;;;;26.63;19.50;;;;;;;2.50;87.40;98374.19;5023065;28;20234;-71
2021/12/18 06:27:57;;;;;;;27.10;19.93;;;;;;;2.53;87.23;98380.22;5022958;28;20207;-71
2021/12/18 06:30:24;;;;;;;26.83;18.57;;;;;;;2.47;87.00;98373.44;5015931;28;20211;-71
2021/12/18 06:32:50;;;;;;;28.30;19.40;;;;;;;2.48;87.34;98377.75;5017520;28;20553;-68
2021/12/18 06:35:18;;;;;;;26.97;19.33;;;;;;;2.48;86.96;98369.91;5035636;28;20646;-69
2021/12/18 06:37:45;;;;;;;26.77;18.80;;;;;;;2.56;87.42;98367.91;5036047;28;20547;-70
2021/12/18 06:40:11;;;;;;;29.17;21.03;;;;;;;2.46;86.92;98369.13;5023375;28;20209;-69
2021/12/18 06:42:38;;;;;;;26.60;19.87;;;;;;;2.42;87.03;98375.34;5028953;28;20222;-70
2021/12/18 06:45:05;;;;;;;25.87;19.47;;;;;;;2.50;86.12;98368.13;5027943;28;20233;-68
2021/12/18 06:47:32;;;;;;;25.97;18.37;;;;;;;2.53;85.72;98375.84;5036750;28;20230;-71
2021/12/18 06:49:58;;;;;;;25.53;19.33;;;;;;;2.54;86.25;98372.34;5017811;28;20214;-69
2021/12/18 06:52:26;;;;;;;24.30;18.53;;;;;;;2.46;85.82;98379.56;5025465;28;20211;-71
2021/12/18 06:54:52;;;;;;;25.47;18.33;;;;;;;2.40;86.26;98379.78;5053388;28;20274;-71
2021/12/18 06:57:22;;;;;;;26.00;18.87;;;;;;;2.34;85.95;98387.78;5050212;28;20218;-70
2021/12/18 06:59:49;;;;;;;24.53;18.53;;;;;;;2.43;86.20;98384.91;5048357;28;20187;-70
2021/12/18 07:02:15;;;;;;;25.80;18.63;;;;;;;2.40;86.14;98385.00;5037404;28;20191;-71
2021/12/18 07:04:41;;;;;;;26.20;19.73;;;;;;;2.46;86.38;98385.66;5045090;28;20230;-71
2021/12/18 07:07:08;;;;;;;26.20;18.33;;;;;;;2.49;85.82;98389.91;5039021;28;20211;-71
2021/12/18 07:09:36;;;;;;;24.67;18.70;;;;;;;2.34;85.94;98393.00;5034679;28;20208;-69
2021/12/18 07:12:03;;;;;;;28.63;20.10;;;;;;;2.33;86.38;98393.94;5050115;28;20216;-69
2021/12/18 07:14:29;;;;;;;24.80;19.07;;;;;;;2.30;86.39;98394.88;5054093;28;20200;-71
2021/12/18 07:16:55;;;;;;;23.53;18.80;;;;;;;2.34;86.18;98391.25;5053625;28;20217;-71
2021/12/18 07:19:22;;;;;;;23.60;18.33;;;;;;;2.27;86.38;98400.19;5048267;28;21167;-69
2021/12/18 07:21:48;;;;;;;24.07;18.30;;;;;;;2.27;86.52;98399.31;5035515;28;20210;-70
2021/12/18 07:24:15;;;;;;;24.97;18.93;;;;;;;2.26;86.53;98397.66;5028345;28;20228;-70
2021/12/18 07:26:43;;;;;;;26.33;18.70;;;;;;;2.26;86.36;98397.66;5035522;28;20220;-68
2021/12/18 07:29:09;;;;;;;23.27;18.10;;;;;;;2.28;86.29;98388.00;5027933;28;20221;-70
2021/12/18 07:31:36;;;;;;;24.87;18.60;;;;;;;2.28;86.40;98385.38;5030501;28;20213;-69
2021/12/18 07:34:02;;;;;;;24.67;18.33;;;;;;;2.28;86.37;98395.81;5035742;28;20226;-70
2021/12/18 07:36:29;;;;;;;25.83;19.67;;;;;;;2.20;85.91;98382.16;5033939;28;20209;-69
2021/12/18 07:38:55;;;;;;;26.37;19.53;;;;;;;2.21;86.31;98396.94;5021247;28;20209;-69
2021/12/18 07:41:22;;;;;;;25.47;18.87;;;;;;;2.20;86.22;98392.59;5036341;28;20218;-71
2021/12/18 07:43:50;;;;;;;28.10;18.43;;;;;;;2.24;86.56;98389.84;5040479;28;20220;-69
2021/12/18 07:46:16;;;;;;;25.80;18.83;;;;;;;2.25;86.53;98395.94;5040940;28;20192;-69
2021/12/18 07:48:44;;;;;;;25.17;18.80;;;;;;;2.31;86.60;98399.19;5047518;28;20209;-69
2021/12/18 07:51:11;;;;;;;24.50;18.63;;;;;;;2.35;86.40;98402.56;5032999;28;20205;-69
2021/12/18 07:53:37;;;;;;;24.37;17.90;;;;;;;2.47;86.13;98396.94;5035197;28;20224;-71
2021/12/18 07:56:04;;;;;;;25.80;18.97;;;;;;;2.47;85.20;98402.16;5038065;28;20209;-68
2021/12/18 07:58:31;;;;;;;23.77;18.17;;;;;;;2.41;85.47;98408.44;5037978;28;20248;-68
2021/12/18 08:00:59;;;;;;;24.13;17.90;;;;;;;2.34;85.58;98404.31;5037309;28;20537;-72
2021/12/18 08:03:25;;;;;;;23.20;17.20;;;;;;;2.46;84.97;98408.28;5038060;28;20524;-70
2021/12/18 08:05:52;;;;;;;23.80;17.63;;;;;;;2.42;85.18;98388.41;5037134;28;20239;-69
2021/12/18 08:08:18;;;;;;;22.40;17.87;;;;;;;2.40;85.24;98391.06;5037721;28;20273;-71
2021/12/18 08:10:45;;;;;;;24.00;18.30;;;;;;;2.40;84.99;98396.28;5037782;28;20216;-69
2021/12/18 08:13:11;;;;;;;22.90;16.77;;;;;;;2.46;85.32;98390.88;5038030;28;20214;-69
2021/12/18 08:15:37;;;;;;;25.77;19.80;;;;;;;2.53;84.80;98390.66;5037650;28;20605;-69
2021/12/18 08:18:07;;;;;;;26.03;18.20;;;;;;;2.41;84.78;98397.13;5037835;28;20217;-71
2021/12/18 08:20:34;;;;;;;24.33;18.43;;;;;;;2.49;85.22;98400.34;5032887;28;20245;-71
2021/12/18 08:23:01;;;;;;;24.47;17.43;;;;;;;2.57;85.04;98394.88;5037589;28;20524;-70
2021/12/18 08:25:27;;;;;;;22.77;17.03;;;;;;;2.55;84.73;98394.91;5023868;28;20666;-68
2021/12/18 08:27:55;;;;;;;23.47;17.33;;;;;;;2.62;84.16;98390.38;5025217;28;20206;-69
2021/12/18 08:30:21;;;;;;;23.40;17.90;;;;;;;2.57;84.49;98393.13;5018362;28;20269;-71
2021/12/18 08:32:48;;;;;;;25.27;18.83;;;;;;;2.59;84.49;98396.53;5030912;28;20215;-71
2021/12/18 08:35:16;;;;;;;25.67;18.33;;;;;;;2.41;84.50;98391.91;5030215;28;20537;-69
2021/12/18 08:37:42;;;;;;;25.67;18.27;;;;;;;2.42;85.17;98404.06;5035698;28;20657;-71
2021/12/18 08:40:10;;;;;;;24.73;18.90;;;;;;;2.41;85.11;98399.75;5036453;28;20216;-69
2021/12/18 08:42:37;;;;;;;24.33;18.27;;;;;;;2.46;84.66;98408.28;5031650;28;20210;-70
2021/12/18 08:45:05;;;;;;;25.03;17.07;;;;;;;2.46;84.75;98408.28;5037402;28;20227;-69
2021/12/18 08:47:31;;;;;;;23.47;17.30;;;;;;;2.56;84.99;98399.25;5036601;28;20644;-69
2021/12/18 08:49:57;;;;;;;22.43;16.93;;;;;;;2.61;84.69;98404.31;5025525;28;20206;-70
2021/12/18 08:52:25;;;;;;;24.30;17.70;;;;;;;2.74;85.12;98405.59;5030656;28;20217;-68
2021/12/18 08:54:52;;;;;;;23.27;17.70;;;;;;;2.87;84.42;98399.91;5037880;28;20218;-71
2021/12/18 08:57:19;;;;;;;26.40;18.73;;;;;;;2.94;83.42;98395.34;5036147;28;20206;-70
2021/12/18 08:59:45;;;;;;;24.97;18.17;;;;;;;2.96;83.63;98403.97;5037152;28;20217;-69
2021/12/18 09:02:13;;;;;;;23.03;17.17;;;;;;;2.95;83.00;98400.50;5037273;28;20207;-71
2021/12/18 09:04:40;;;;;;;25.20;17.80;;;;;;;3.07;83.34;98400.97;5036644;28;20237;-70
2021/12/18 09:07:08;;;;;;;22.53;17.27;;;;;;;3.13;82.87;98403.38;5036826;28;20207;-69
2021/12/18 09:09:36;;;;;;;24.87;18.10;;;;;;;3.12;81.88;98397.28;5027311;28;20206;-71
2021/12/18 09:12:03;;;;;;;24.43;18.17;;;;;;;3.04;81.88;98403.69;5036779;28;20225;-70
2021/12/18 09:14:29;;;;;;;22.43;18.10;;;;;;;3.10;82.24;98406.09;5036773;28;20210;-71
2021/12/18 09:16:56;;;;;;;23.63;17.33;;;;;;;3.05;81.66;98393.16;5036899;28;20298;-71
2021/12/18 09:19:22;;;;;;;24.17;17.93;;;;;;;3.14;81.54;98390.25;5023773;28;20226;-68
2021/12/18 09:21:49;;;;;;;23.90;17.73;;;;;;;3.15;81.56;98385.88;5031680;28;20217;-70
2021/12/18 09:24:15;;;;;;;25.37;17.60;;;;;;;3.16;82.11;98388.41;5036827;28;20219;-70
2021/12/18 09:26:43;;;;;;;24.40;17.87;;;;;;;3.24;81.46;98381.16;5031681;28;20199;-68
2021/12/18 09:29:10;;;;;;;21.60;16.47;;;;;;;3.35;80.95;98378.16;5016766;28;20268;-68
2021/12/18 09:31:36;;;;;;;25.50;17.77;;;;;;;3.68;79.72;98374.28;5017223;28;20222;-70
2021/12/18 09:34:03;;;;;;;23.77;16.67;;;;;;;3.87;78.10;98369.16;5018885;28;20542;-69
2021/12/18 09:36:29;;;;;;;21.93;16.30;;;;;;;3.81;78.44;98375.50;5019019;28;20211;-69
2021/12/18 09:38:56;;;;;;;22.07;16.33;;;;;;;3.54;78.96;98370.47;5036364;28;20211;-70
2021/12/18 09:41:22;;;;;;;21.47;17.00;;;;;;;3.58;78.94;98370.28;5036314;28;20215;-71
2021/12/18 09:43:50;;;;;;;21.77;16.37;;;;;;;3.43;79.15;98368.28;5031710;28;20634;-70
2021/12/18 09:46:17;;;;;;;20.53;15.97;;;;;;;3.54;78.74;98373.09;5033579;28;20595;-70
2021/12/18 09:48:44;;;;;;;22.30;16.53;;;;;;;3.34;79.44;98366.84;5025466;28;20220;-71
2021/12/18 09:51:22;;;;;;;22.90;17.47;;;;;;;3.53;79.73;98361.78;5016268;28;20218;-69
2021/12/18 09:53:48;;;;;;;24.17;16.40;;;;;;;3.48;79.35;98368.94;5029135;28;20705;-67
2021/12/18 09:56:15;;;;;;;21.17;16.20;;;;;;;3.54;80.71;98363.50;5036196;28;20214;-68
2021/12/18 09:58:41;;;;;;;25.33;18.37;;;;;;;3.70;79.64;98359.38;5040131;28;20222;-71
2021/12/18 10:01:09;;;;;;;23.80;17.67;;;;;;;3.98;78.31;98357.38;5039627;28;20293;-69
2021/12/18 10:03:48;;;;;;;23.90;17.77;;;;;;;4.40;77.93;98346.06;5049022;28;20202;-70
2021/12/18 10:06:34;;;;;;;20.63;15.97;;;;;;;4.75;75.90;98337.56;5033614;28;20239;-67
2021/12/18 10:09:01;;;;;;;22.80;17.57;;;;;;;5.62;73.50;98334.53;5036191;28;20230;-68
2021/12/18 10:11:27;;;;;;;21.80;16.80;;;;;;;5.79;70.62;98339.81;5035990;28;20211;-69
2021/12/18 10:13:56;;;;;;;21.90;17.70;;;;;;;6.54;69.05;98338.84;5027388;28;20215;-69
2021/12/18 10:16:26;;;;;;;21.60;18.13;;;;;;;7.26;66.87;98328.94;5036214;28;20571;-68
2021/12/18 10:18:53;;;;;;;22.40;18.57;;;;;;;7.16;65.67;98323.28;5030638;28;20232;-69
2021/12/18 10:21:22;;;;;;;21.80;19.17;;;;;;;7.15;66.34;98331.28;5012957;28;20231;-68
2021/12/18 10:23:50;;;;;;;20.47;17.63;;;;;;;7.25;67.20;98321.97;5033923;28;20267;-71
2021/12/18 10:26:36;;;;;;;19.90;17.53;;;;;;;7.49;65.53;98320.66;5035616;28;20235;-69
2021/12/18 10:29:04;;;;;;;20.10;17.50;;;;;;;7.42;64.54;98314.00;5035733;28;20235;-67
2021/12/18 10:31:43;;;;;;;19.97;17.00;;;;;;;6.95;65.97;98322.63;5033258;28;20199;-68
2021/12/18 10:34:18;;;;;;;18.63;16.40;;;;;;;7.12;64.96;98326.19;5029568;28;20204;-69
2021/12/18 10:37:09;;;;;;;18.67;16.57;;;;;;;7.09;65.44;98315.78;5035095;28;20210;-70
2021/12/18 10:39:36;;;;;;;19.40;16.53;;;;;;;7.23;63.32;98319.41;5035455;28;20204;-69
2021/12/18 10:42:15;;;;;;;18.87;16.53;;;;;;;6.95;64.06;98313.91;5027210;28;20209;-70
2021/12/18 10:44:56;;;;;;;18.30;15.27;;;;;;;6.98;63.99;98319.84;5032241;28;20196;-68
2021/12/18 10:47:24;;;;;;;16.30;14.43;;;;;;;7.18;65.65;98315.31;5035468;28;20215;-68
2021/12/18 10:49:50;;;;;;;15.47;13.57;;;;;;;6.89;65.47;98309.81;5016160;28;20235;-68
2021/12/18 10:52:17;;;;;;;16.23;14.47;;;;;;;6.48;65.17;98308.47;5029757;28;20207;-67
2021/12/18 10:54:43;;;;;;;17.17;13.93;;;;;;;6.20;67.86;98308.13;5036480;28;20218;-69
2021/12/18 10:57:20;;;;;;;17.00;14.50;;;;;;;5.88;68.55;98305.28;5036240;28;20619;-68
2021/12/18 10:59:48;;;;;;;17.43;14.30;;;;;;;5.62;69.28;98305.66;5022736;28;20203;-67
2021/12/18 11:02:16;;;;;;;16.20;13.93;;;;;;;5.24;69.84;98301.34;5034391;28;20222;-68
2021/12/18 11:04:44;;;;;;;15.43;13.70;;;;;;;5.11;72.06;98294.91;5033288;28;20203;-69
2021/12/18 11:07:17;;;;;;;16.93;13.93;;;;;;;5.01;70.90;98295.34;5035863;28;20240;-69
2021/12/18 11:09:49;;;;;;;17.73;15.07;;;;;;;4.88;70.92;98286.34;5035382;28;20218;-69
2021/12/18 11:15:01;;;;;;;18.33;14.87;;;;;;;4.40;72.44;98288.44;5035268;28;20274;-71
2021/12/18 11:17:28;;;;;;;17.80;14.40;;;;;;;4.41;72.34;98285.78;5039120;28;20212;-70
2021/12/18 11:19:56;;;;;;;17.57;14.00;;;;;;;4.47;73.65;98271.53;5038939;28;20216;-69
2021/12/18 11:22:22;;;;;;;18.20;14.57;;;;;;;4.59;72.55;98278.03;5032441;28;20205;-68
2021/12/18 11:24:58;;;;;;;16.40;13.67;;;;;;;4.35;73.36;98275.56;5031551;28;20204;-67
2021/12/18 11:27:25;;;;;;;18.97;14.23;;;;;;;4.36;73.35;98265.91;5032091;28;20217;-67
2021/12/18 11:29:55;;;;;;;20.33;14.40;;;;;;;4.39;73.90;98261.38;5020357;28;20208;-68
2021/12/18 11:32:24;;;;;;;18.00;14.07;;;;;;;4.37;73.16;98267.63;5038921;28;20210;-67
2021/12/18 11:34:54;;;;;;;17.30;13.67;;;;;;;4.21;73.67;98250.88;5038994;28;20207;-70
2021/12/18 11:37:24;;;;;;;18.37;14.27;;;;;;;4.28;73.41;98247.06;5038373;28;20214;-68
2021/12/18 11:39:54;;;;;;;18.97;15.23;;;;;;;4.24;73.13;98240.25;5039220;28;20219;-68
2021/12/18 11:42:28;;;;;;;18.33;14.30;;;;;;;4.28;73.63;98242.69;5040107;28;20594;-68
2021/12/18 11:44:56;;;;;;;19.03;14.97;;;;;;;4.35;73.23;98238.03;5038980;28;20196;-69
2021/12/18 11:47:29;;;;;;;18.07;14.77;;;;;;;4.48;73.58;98241.81;5047232;28;20237;-68
2021/12/18 11:49:58;;;;;;;18.87;14.97;;;;;;;4.69;73.22;98233.03;5027473;28;20269;-70
2021/12/18 11:52:26;;;;;;;19.03;14.63;;;;;;;4.64;72.18;98229.72;5035141;28;20211;-70
2021/12/18 11:54:56;;;;;;;17.17;14.17;;;;;;;4.84;71.80;98224.47;5038753;28;20235;-68
2021/12/18 11:57:44;;;;;;;20.40;15.13;;;;;;;4.96;71.28;98221.28;5037814;28;20635;-67
2021/12/18 12:00:33;;;;;;;17.93;14.57;;;;;;;5.21;70.89;98225.41;5038160;28;20200;-69
2021/12/18 12:03:01;;;;;;;19.53;14.83;;;;;;;5.25;69.93;98216.47;5038191;28;20207;-68
2021/12/18 12:05:34;;;;;;;17.87;14.63;;;;;;;5.30;70.40;98214.47;5037688;28;20251;-69